createdAt,value
2023-03-29T00:08:06.306Z,9
2023-03-29T00:37:22.104Z,10
2023-03-29T01:06:43.551Z,7
2023-03-29T01:35:52.214Z,6
2023-03-29T02:05:06.177Z,6
2023-03-29T02:34:18.704Z,7
2023-03-29T03:03:31.071Z,7
2023-03-29T03:32:39.001Z,6
2023-03-29T04:01:46.551Z,7
2023-03-29T04:31:01.592Z,11
2023-03-29T05:00:01.371Z,8
2023-03-29T05:29:12.152Z,10
2023-03-29T05:58:28.361Z,10
2023-03-29T06:27:42.518Z,11
2023-03-29T06:56:55.707Z,11
2023-03-29T07:26:05.540Z,13
2023-03-29T07:55:20.698Z,12
2023-03-29T08:24:38.588Z,12
2023-03-29T08:53:54.374Z,10
2023-03-29T09:23:11.774Z,9
2023-03-29T09:52:27.144Z,10
2023-03-29T10:21:46.894Z,7
2023-03-29T10:51:09.556Z,7
2023-03-29T11:20:34.162Z,6
2023-03-29T11:49:58.902Z,7
2023-03-29T12:19:21.033Z,6
2023-03-29T12:48:46.506Z,7
2023-03-29T13:18:11.001Z,6
2023-03-29T13:47:06.599Z,6
2023-03-29T14:16:27.658Z,7
2023-03-29T14:45:52.154Z,7
2023-03-29T15:15:17.247Z,6
2023-03-29T15:44:31.278Z,6
2023-03-29T16:13:49.374Z,7
2023-03-29T16:42:55.441Z,7
2023-03-29T17:12:12.636Z,10
2023-03-29T17:41:32.752Z,7
2023-03-29T18:10:51.148Z,7
2023-03-29T18:40:16.836Z,7
2023-03-29T19:09:39.413Z,8
2023-03-29T19:38:55.234Z,10
2023-03-29T20:08:07.571Z,6
2023-03-29T20:37:21.867Z,7
2023-03-29T21:06:37.778Z,8
2023-03-29T21:36:00.368Z,10
2023-03-29T22:05:18.112Z,9
2023-03-29T22:34:43.016Z,10
2023-03-29T23:04:07.003Z,10
2023-03-29T23:33:24.404Z,12
